createdAt,value
2022-11-10T00:02:25.916Z,8.17
2022-11-10T00:04:53.453Z,6.90
2022-11-10T00:07:25.521Z,4.10
2022-11-10T00:09:53.349Z,3.53
2022-11-10T00:12:21.556Z,8.47
2022-11-10T00:15:06.962Z,6.60
2022-11-10T00:17:36.922Z,6.30
2022-11-10T00:20:05.947Z,9.03
2022-11-10T00:22:36.109Z,5.87
2022-11-10T00:25:04.262Z,5.87
2022-11-10T00:27:33.033Z,5.83
2022-11-10T00:30:00.831Z,8.87
2022-11-10T00:32:28.397Z,6.90
2022-11-10T00:34:56.013Z,7.73
2022-11-10T00:37:23.564Z,5.27
2022-11-10T00:39:52.502Z,6.40
2022-11-10T00:42:20.103Z,6.23
2022-11-10T00:44:47.627Z,3.83
2022-11-10T00:47:15.169Z,5.37
2022-11-10T00:49:42.703Z,7.90
2022-11-10T00:52:10.295Z,6.50
2022-11-10T00:54:37.866Z,7.57
2022-11-10T00:57:06.818Z,7.00
2022-11-10T00:59:34.395Z,8.37
2022-11-10T01:02:01.925Z,5.73
2022-11-10T01:04:29.502Z,5.97
2022-11-10T01:06:57.072Z,6.73
2022-11-10T01:09:24.694Z,9.90
2022-11-10T01:11:52.246Z,6.67
2022-11-10T01:14:21.110Z,6.23
2022-11-10T01:16:48.665Z,5.93
2022-11-10T01:19:16.164Z,6.50
2022-11-10T01:21:43.737Z,4.53
2022-11-10T01:24:11.285Z,8.70
2022-11-10T01:26:38.857Z,4.10
2022-11-10T01:29:06.386Z,6.53
2022-11-10T01:31:35.263Z,6.03
2022-11-10T01:34:02.861Z,10.57
2022-11-10T01:36:30.437Z,10.83
2022-11-10T01:38:57.996Z,6.43
2022-11-10T01:41:25.597Z,6.20
2022-11-10T01:43:53.160Z,7.87
2022-11-10T01:46:20.728Z,5.83
2022-11-10T01:48:52.413Z,5.37
2022-11-10T01:51:21.984Z,5.37
2022-11-10T01:53:52.362Z,5.67
2022-11-10T01:56:20.122Z,5.90
2022-11-10T01:59:03.299Z,9.93
2022-11-10T02:01:31.696Z,5.23
2022-11-10T02:04:02.630Z,6.80
2022-11-10T02:06:31.902Z,3.93
2022-11-10T02:08:59.621Z,8.73
2022-11-10T02:11:27.658Z,8.23
2022-11-10T02:13:55.518Z,7.80
2022-11-10T02:16:23.270Z,7.83
2022-11-10T02:18:51.004Z,5.37
2022-11-10T02:21:20.832Z,10.00
2022-11-10T02:23:50.536Z,5.90
2022-11-10T02:26:20.644Z,6.17
2022-11-10T02:28:48.280Z,5.43
2022-11-10T02:31:16.191Z,5.97
2022-11-10T02:33:44.240Z,3.70
2022-11-10T02:36:12.083Z,8.53
2022-11-10T02:38:41.171Z,12.27
2022-11-10T02:41:08.738Z,4.87
2022-11-10T02:43:37.575Z,6.73
2022-11-10T02:46:05.206Z,6.10
2022-11-10T02:48:32.775Z,10.43
2022-11-10T02:51:00.418Z,9.83
2022-11-10T02:53:27.956Z,6.97
2022-11-10T02:55:56.819Z,7.60
2022-11-10T02:58:24.390Z,4.37
2022-11-10T03:00:52.047Z,3.57
2022-11-10T03:03:19.892Z,5.63
2022-11-10T03:05:47.637Z,6.87
2022-11-10T03:08:15.214Z,6.10
2022-11-10T03:10:42.877Z,6.60
2022-11-10T03:13:11.814Z,6.13
2022-11-10T03:15:39.367Z,8.43
2022-11-10T03:18:07.088Z,7.77
2022-11-10T03:20:34.910Z,7.43
2022-11-10T03:23:03.754Z,3.63
2022-11-10T03:25:31.360Z,5.83
2022-11-10T03:27:58.932Z,5.20
2022-11-10T03:30:28.117Z,6.07
2022-11-10T03:32:55.723Z,9.77
2022-11-10T03:35:23.340Z,7.30
2022-11-10T03:37:50.906Z,5.47
2022-11-10T03:40:18.602Z,9.03
2022-11-10T03:42:46.835Z,7.37
2022-11-10T03:45:15.574Z,7.90
2022-11-10T03:47:49.789Z,7.63
2022-11-10T03:50:17.988Z,7.20
2022-11-10T03:52:46.470Z,9.10
2022-11-10T03:55:16.744Z,6.73
2022-11-10T03:57:44.564Z,8.17
2022-11-10T04:00:13.522Z,9.13
2022-11-10T04:02:41.124Z,8.47
2022-11-10T04:05:28.201Z,4.40
2022-11-10T04:08:17.032Z,8.70
2022-11-10T04:10:44.602Z,6.27
2022-11-10T04:13:30.435Z,6.00
2022-11-10T04:15:58.185Z,4.97
2022-11-10T04:18:25.863Z,10.93
2022-11-10T04:20:56.225Z,5.97
2022-11-10T04:23:28.077Z,7.50
2022-11-10T04:26:18.777Z,8.37
2022-11-10T04:28:47.276Z,7.27
2022-11-10T04:31:15.533Z,6.67
2022-11-10T04:33:43.182Z,8.37
2022-11-10T04:36:13.746Z,6.73
2022-11-10T04:38:41.713Z,11.50
2022-11-10T04:41:10.067Z,8.47
2022-11-10T04:43:37.970Z,7.13
2022-11-10T04:46:06.585Z,4.80
2022-11-10T04:48:35.656Z,11.57
2022-11-10T04:51:06.024Z,12.27
2022-11-10T04:53:35.003Z,6.87
2022-11-10T04:56:02.581Z,9.07
2022-11-10T04:58:30.153Z,8.13
2022-11-10T05:00:57.788Z,9.33
2022-11-10T05:03:26.514Z,10.83
2022-11-10T05:05:54.077Z,10.53
2022-11-10T05:08:21.653Z,9.63
2022-11-10T05:10:50.617Z,12.33
2022-11-10T05:13:18.167Z,9.33
2022-11-10T05:15:46.572Z,8.60
2022-11-10T05:18:14.102Z,10.07
2022-11-10T05:20:41.817Z,7.13
2022-11-10T05:23:26.983Z,9.93
2022-11-10T05:25:55.847Z,6.87
2022-11-10T05:28:23.415Z,7.67
2022-11-10T05:30:50.937Z,8.17
2022-11-10T05:33:18.669Z,7.97
2022-11-10T05:35:46.465Z,7.60
2022-11-10T05:38:14.096Z,7.13
2022-11-10T05:40:41.644Z,10.00
2022-11-10T05:43:10.712Z,6.37
2022-11-10T05:45:38.349Z,5.40
2022-11-10T05:48:06.186Z,10.10
2022-11-10T05:50:33.837Z,11.07
2022-11-10T05:53:01.434Z,5.93
2022-11-10T05:55:30.184Z,7.83
2022-11-10T05:57:58.335Z,5.77
2022-11-10T06:00:28.713Z,8.20
2022-11-10T06:03:04.182Z,5.00
2022-11-10T06:05:33.534Z,9.93
2022-11-10T06:08:01.412Z,6.97
2022-11-10T06:10:29.087Z,6.37
2022-11-10T06:12:56.793Z,5.87
2022-11-10T06:15:25.001Z,7.83
2022-11-10T06:17:54.570Z,10.97
2022-11-10T06:20:22.399Z,9.63
2022-11-10T06:23:01.145Z,9.17
2022-11-10T06:25:29.881Z,8.80
2022-11-10T06:27:57.866Z,6.00
2022-11-10T06:30:25.877Z,13.13
2022-11-10T06:32:54.852Z,6.37
2022-11-10T06:35:23.491Z,9.57
2022-11-10T06:38:00.921Z,9.30
2022-11-10T06:40:29.081Z,6.60
2022-11-10T06:42:56.925Z,8.37
2022-11-10T06:45:25.166Z,8.97
2022-11-10T06:48:02.400Z,8.77
2022-11-10T06:50:30.007Z,10.97
2022-11-10T06:52:58.160Z,9.10
2022-11-10T06:55:26.049Z,9.93
2022-11-10T06:57:54.219Z,10.40
2022-11-10T07:00:22.454Z,6.60
2022-11-10T07:02:50.101Z,8.63
2022-11-10T07:05:19.009Z,8.53
2022-11-10T07:07:46.563Z,13.53
2022-11-10T07:10:14.153Z,16.80
2022-11-10T07:12:41.699Z,12.17
2022-11-10T07:15:10.894Z,9.57
2022-11-10T07:17:40.669Z,9.53
2022-11-10T07:20:10.167Z,7.63
2022-11-10T07:22:39.036Z,11.73
2022-11-10T07:25:07.212Z,12.57
2022-11-10T07:27:34.735Z,17.70
2022-11-10T07:30:02.329Z,8.83
2022-11-10T07:32:29.897Z,8.47
2022-11-10T07:34:57.453Z,10.13
2022-11-10T07:37:25.172Z,13.73
2022-11-10T07:39:54.111Z,9.63
2022-11-10T07:42:21.685Z,8.50
2022-11-10T07:44:49.251Z,8.50
2022-11-10T07:47:16.786Z,6.93
2022-11-10T07:49:44.408Z,8.17
2022-11-10T07:52:11.937Z,5.83
2022-11-10T07:54:39.515Z,6.10
2022-11-10T07:57:08.402Z,7.33
2022-11-10T07:59:35.974Z,9.43
2022-11-10T08:02:03.586Z,7.80
2022-11-10T08:04:31.200Z,7.13
2022-11-10T08:06:59.651Z,5.97
2022-11-10T08:09:27.259Z,7.10
2022-11-10T08:11:54.925Z,7.40
2022-11-10T08:14:23.907Z,7.10
2022-11-10T08:16:51.572Z,7.53
2022-11-10T08:19:19.613Z,9.67
2022-11-10T08:21:47.251Z,7.50
2022-11-10T08:24:14.817Z,6.87
2022-11-10T08:26:42.459Z,9.90
2022-11-10T08:29:10.159Z,7.30
2022-11-10T08:31:39.211Z,9.50
2022-11-10T08:34:06.879Z,6.03
2022-11-10T08:36:34.442Z,6.33
2022-11-10T08:39:02.023Z,14.63
2022-11-10T08:41:29.618Z,8.73
2022-11-10T08:43:57.182Z,10.77
2022-11-10T08:46:24.725Z,10.10
2022-11-10T08:48:54.369Z,8.57
2022-11-10T08:51:22.269Z,7.70
2022-11-10T08:53:49.819Z,9.93
2022-11-10T08:56:17.496Z,10.50
2022-11-10T08:58:50.428Z,9.77
2022-11-10T09:01:21.190Z,11.03
2022-11-10T09:03:48.850Z,10.77
2022-11-10T09:06:17.757Z,9.30
2022-11-10T09:08:45.343Z,10.67
2022-11-10T09:11:12.887Z,9.50
2022-11-10T09:13:40.510Z,12.17
2022-11-10T09:16:08.572Z,8.60
2022-11-10T09:18:36.461Z,12.40
2022-11-10T09:21:06.646Z,9.00
2022-11-10T09:23:35.539Z,7.90
2022-11-10T09:26:03.840Z,8.47
2022-11-10T09:28:31.453Z,11.50
2022-11-10T09:30:59.066Z,9.03
2022-11-10T09:33:26.893Z,8.23
2022-11-10T09:35:58.512Z,11.03
2022-11-10T09:38:26.282Z,8.40
2022-11-10T09:41:02.691Z,5.57
2022-11-10T09:43:34.910Z,12.70
2022-11-10T09:46:07.548Z,12.17
2022-11-10T09:48:37.254Z,8.80
2022-11-10T09:51:07.051Z,8.97
2022-11-10T09:53:38.798Z,6.93
2022-11-10T09:56:08.549Z,9.87
2022-11-10T09:58:39.726Z,6.70
2022-11-10T10:01:27.531Z,3.93
2022-11-10T10:04:07.660Z,7.17
2022-11-10T10:07:04.860Z,6.97
2022-11-10T10:09:36.382Z,9.67
2022-11-10T10:12:19.947Z,7.43
2022-11-10T10:14:58.451Z,13.10
2022-11-10T10:17:29.368Z,7.17
2022-11-10T10:20:00.659Z,10.60
2022-11-10T10:22:46.400Z,8.00
2022-11-10T10:25:17.907Z,4.60
2022-11-10T10:27:48.337Z,6.63
2022-11-10T10:30:19.213Z,8.13
2022-11-10T10:32:46.919Z,9.03
2022-11-10T10:35:15.489Z,7.73
2022-11-10T10:37:46.612Z,9.17
2022-11-10T10:40:18.979Z,6.17
2022-11-10T10:42:48.653Z,6.30
2022-11-10T10:45:18.669Z,6.90
2022-11-10T10:47:47.772Z,9.50
2022-11-10T10:50:27.906Z,8.57
2022-11-10T10:53:10.012Z,8.43
2022-11-10T10:55:38.079Z,6.23
2022-11-10T10:58:19.993Z,5.33
2022-11-10T11:00:48.872Z,5.53
2022-11-10T11:03:25.949Z,6.57
2022-11-10T11:06:06.145Z,9.10
2022-11-10T11:08:33.876Z,8.60
2022-11-10T11:11:11.949Z,5.70
2022-11-10T11:13:40.893Z,6.83
2022-11-10T11:16:12.080Z,7.60
2022-11-10T11:18:40.969Z,7.83
2022-11-10T11:21:13.949Z,8.30
2022-11-10T11:24:04.899Z,6.47
2022-11-10T11:26:37.898Z,8.27
2022-11-10T11:29:18.561Z,6.23
2022-11-10T11:31:50.786Z,9.00
2022-11-10T11:34:21.834Z,10.10
2022-11-10T11:36:54.447Z,6.13
2022-11-10T11:39:31.979Z,6.90
2022-11-10T11:42:07.599Z,5.70
2022-11-10T11:44:45.894Z,5.90
2022-11-10T11:47:25.639Z,7.33
2022-11-10T11:50:00.448Z,8.73
2022-11-10T11:52:36.069Z,7.63
2022-11-10T11:55:15.724Z,4.87
2022-11-10T11:57:53.146Z,8.03
2022-11-10T12:00:23.195Z,5.87
2022-11-10T12:03:04.872Z,6.83
2022-11-10T12:05:37.612Z,5.77
2022-11-10T12:08:12.225Z,6.93
2022-11-10T12:10:46.835Z,11.33
2022-11-10T12:13:38.820Z,7.53
2022-11-10T12:16:15.497Z,6.73
2022-11-10T12:18:49.805Z,9.00
2022-11-10T12:21:25.436Z,7.00
2022-11-10T12:24:10.666Z,6.10
2022-11-10T12:26:42.840Z,4.87
2022-11-10T12:29:25.983Z,6.80
2022-11-10T12:31:56.959Z,7.03
2022-11-10T12:34:31.955Z,6.60
2022-11-10T12:37:03.065Z,8.27
2022-11-10T12:39:38.456Z,8.13
2022-11-10T12:42:07.184Z,7.33
2022-11-10T12:44:38.234Z,6.83
2022-11-10T12:47:12.497Z,6.63
2022-11-10T12:49:42.374Z,7.93
2022-11-10T12:52:12.937Z,5.43
2022-11-10T12:54:42.188Z,8.30
2022-11-10T12:57:13.539Z,7.60
2022-11-10T12:59:43.732Z,6.07
2022-11-10T13:02:25.915Z,7.83
2022-11-10T13:05:25.032Z,6.27
2022-11-10T13:08:15.449Z,8.07
2022-11-10T13:10:54.381Z,9.10
2022-11-10T13:13:22.658Z,6.73
2022-11-10T13:15:55.178Z,6.27
2022-11-10T13:18:54.041Z,7.00
2022-11-10T13:22:06.044Z,8.50
2022-11-10T13:24:34.595Z,6.00
2022-11-10T13:27:02.729Z,9.30
2022-11-10T13:29:34.841Z,6.30
2022-11-10T13:32:24.178Z,7.63
2022-11-10T13:34:53.925Z,9.87
2022-11-10T13:37:51.269Z,6.13
2022-11-10T13:40:29.470Z,7.43
2022-11-10T13:43:25.903Z,7.93
2022-11-10T13:46:06.271Z,6.70
2022-11-10T13:48:47.039Z,7.27
2022-11-10T13:51:24.989Z,5.10
2022-11-10T13:54:13.765Z,6.70
2022-11-10T13:57:01.932Z,5.77
2022-11-10T13:59:32.397Z,5.33
2022-11-10T14:02:45.050Z,8.03
2022-11-10T14:06:01.244Z,8.33
2022-11-10T14:08:36.115Z,8.93
2022-11-10T14:11:05.468Z,7.20
2022-11-10T14:13:39.665Z,7.33
2022-11-10T14:16:16.674Z,12.50
2022-11-10T14:18:49.495Z,7.43
2022-11-10T14:21:24.483Z,5.63
2022-11-10T14:23:57.179Z,7.27
2022-11-10T14:26:29.287Z,9.37
2022-11-10T14:28:56.969Z,6.20
2022-11-10T14:31:26.086Z,8.07
2022-11-10T14:33:55.602Z,7.23
2022-11-10T14:36:23.599Z,6.33
2022-11-10T14:38:53.523Z,10.50
2022-11-10T14:41:23.167Z,8.43
2022-11-10T14:44:12.013Z,6.73
2022-11-10T14:46:39.649Z,9.43
2022-11-10T14:49:07.350Z,9.07
2022-11-10T14:51:35.915Z,9.63
2022-11-10T14:54:04.879Z,7.67
2022-11-10T14:56:36.441Z,8.93
2022-11-10T14:59:05.811Z,11.97
2022-11-10T15:01:36.777Z,6.53
2022-11-10T15:04:06.592Z,9.83
2022-11-10T15:06:34.710Z,11.40
2022-11-10T15:09:14.185Z,8.43
2022-11-10T15:11:48.798Z,7.83
2022-11-10T15:14:46.699Z,10.30
2022-11-10T15:17:16.102Z,8.73
2022-11-10T15:19:54.566Z,5.07
2022-11-10T15:22:24.327Z,8.97
2022-11-10T15:24:53.491Z,10.07
2022-11-10T15:27:26.281Z,8.53
2022-11-10T15:29:55.467Z,9.20
2022-11-10T15:32:24.907Z,11.87
2022-11-10T15:34:53.082Z,7.63
2022-11-10T15:37:30.210Z,6.87
2022-11-10T15:40:34.257Z,8.57
2022-11-10T15:43:13.331Z,6.60
2022-11-10T15:45:41.510Z,7.83
2022-11-10T15:48:12.474Z,8.07
2022-11-10T15:50:40.656Z,7.20
2022-11-10T15:53:14.911Z,19.80
2022-11-10T15:55:45.285Z,10.37
2022-11-10T15:58:14.888Z,10.23
2022-11-10T16:00:42.603Z,10.97
2022-11-10T16:03:14.472Z,10.43
2022-11-10T16:05:42.453Z,8.73
2022-11-10T16:08:14.153Z,8.53
2022-11-10T16:10:45.579Z,9.03
2022-11-10T16:13:15.940Z,9.70
2022-11-10T16:15:45.315Z,6.90
2022-11-10T16:18:16.310Z,8.00
2022-11-10T16:20:44.526Z,9.13
2022-11-10T16:23:12.796Z,11.53
2022-11-10T16:25:41.548Z,7.67
2022-11-10T16:28:12.319Z,7.60
2022-11-10T16:30:40.056Z,9.07
2022-11-10T16:33:07.653Z,6.53
2022-11-10T16:35:35.297Z,9.97
2022-11-10T16:38:03.440Z,11.03
2022-11-10T16:40:31.112Z,11.27
2022-11-10T16:42:58.795Z,19.87
2022-11-10T16:45:30.122Z,14.27
2022-11-10T16:47:58.630Z,7.43
2022-11-10T16:50:34.095Z,10.20
2022-11-10T16:53:03.251Z,11.23
2022-11-10T16:55:31.092Z,6.87
2022-11-10T16:57:58.753Z,8.33
2022-11-10T17:00:27.726Z,8.60
2022-11-10T17:03:00.119Z,7.57
2022-11-10T17:05:27.764Z,12.47
2022-11-10T17:07:55.959Z,11.43
2022-11-10T17:10:23.922Z,9.17
2022-11-10T17:12:51.606Z,8.03
2022-11-10T17:15:19.894Z,8.97
2022-11-10T17:17:51.394Z,9.03
2022-11-10T17:20:21.099Z,14.00
2022-11-10T17:22:49.682Z,9.80
2022-11-10T17:25:24.544Z,9.67
2022-11-10T17:27:52.126Z,9.23
2022-11-10T17:30:20.041Z,11.77
2022-11-10T17:33:05.678Z,11.50
2022-11-10T17:35:39.203Z,9.50
2022-11-10T17:38:12.883Z,8.17
2022-11-10T17:40:41.955Z,8.00
2022-11-10T17:43:11.518Z,9.27
2022-11-10T17:45:40.071Z,15.97
2022-11-10T17:48:09.182Z,11.50
2022-11-10T17:50:37.592Z,9.90
2022-11-10T17:53:13.917Z,11.23
2022-11-10T17:55:42.281Z,10.13
2022-11-10T17:58:10.219Z,8.80
2022-11-10T18:00:38.022Z,8.17
2022-11-10T18:03:08.538Z,8.33
2022-11-10T18:05:39.398Z,10.20
2022-11-10T18:08:06.925Z,9.00
2022-11-10T18:10:34.467Z,13.03
2022-11-10T18:13:02.092Z,6.97
2022-11-10T18:15:29.672Z,10.73
2022-11-10T18:18:00.857Z,8.90
2022-11-10T18:20:28.855Z,11.60
2022-11-10T18:22:57.809Z,9.33
2022-11-10T18:25:25.360Z,9.43
2022-11-10T18:27:52.922Z,11.87
2022-11-10T18:30:20.552Z,8.53
2022-11-10T18:32:48.137Z,12.00
2022-11-10T18:35:17.765Z,11.30
2022-11-10T18:37:45.382Z,7.83
2022-11-10T18:40:16.108Z,10.77
2022-11-10T18:42:43.657Z,9.40
2022-11-10T18:45:12.895Z,13.07
2022-11-10T18:47:40.664Z,13.00
2022-11-10T18:50:09.801Z,11.10
2022-11-10T18:52:37.487Z,11.00
2022-11-10T18:55:05.426Z,11.87
2022-11-10T18:57:34.381Z,10.73
2022-11-10T19:00:01.992Z,11.80
2022-11-10T19:02:29.586Z,12.07
2022-11-10T19:04:57.263Z,10.47
2022-11-10T19:07:24.827Z,10.07
2022-11-10T19:09:52.814Z,7.40
2022-11-10T19:12:26.367Z,9.77
2022-11-10T19:14:55.817Z,10.67
2022-11-10T19:17:23.663Z,12.13
2022-11-10T19:19:56.187Z,10.67
2022-11-10T19:22:24.421Z,9.47
2022-11-10T19:25:08.798Z,7.50
2022-11-10T19:27:37.064Z,8.10
2022-11-10T19:30:07.196Z,10.50
2022-11-10T19:32:34.822Z,8.57
2022-11-10T19:35:03.725Z,10.90
2022-11-10T19:37:34.868Z,11.10
2022-11-10T19:40:02.685Z,9.57
2022-11-10T19:42:30.591Z,11.03
2022-11-10T19:44:58.798Z,6.60
2022-11-10T19:47:27.939Z,7.93
2022-11-10T19:49:55.632Z,10.23
2022-11-10T19:52:23.262Z,17.33
2022-11-10T19:54:50.840Z,13.10
2022-11-10T19:57:18.501Z,11.87
2022-11-10T19:59:46.152Z,9.63
2022-11-10T20:02:13.830Z,11.83
2022-11-10T20:04:56.702Z,11.23
2022-11-10T20:07:41.945Z,13.63
2022-11-10T20:10:10.683Z,9.73
2022-11-10T20:12:38.267Z,11.70
2022-11-10T20:15:07.817Z,21.13
2022-11-10T20:17:35.436Z,11.83
2022-11-10T20:20:05.047Z,18.77
2022-11-10T20:22:32.741Z,13.73
2022-11-10T20:25:00.349Z,17.80
2022-11-10T20:27:27.992Z,14.20
2022-11-10T20:29:55.609Z,16.83
2022-11-10T20:32:23.214Z,15.80
2022-11-10T20:34:50.804Z,17.57
2022-11-10T20:37:19.746Z,16.03
2022-11-10T20:39:47.339Z,12.87
2022-11-10T20:42:15.091Z,11.83
2022-11-10T20:44:42.686Z,17.87
2022-11-10T20:47:10.329Z,14.37
2022-11-10T20:49:38.085Z,15.30
2022-11-10T20:52:06.072Z,15.20
2022-11-10T20:54:34.991Z,13.70
2022-11-10T20:57:02.955Z,18.43
2022-11-10T20:59:30.570Z,12.00
2022-11-10T21:01:58.207Z,15.53
2022-11-10T21:04:30.027Z,13.43
2022-11-10T21:06:57.848Z,14.23
2022-11-10T21:09:26.915Z,14.27
2022-11-10T21:12:13.726Z,17.50
2022-11-10T21:14:41.297Z,15.10
2022-11-10T21:17:08.865Z,15.53
2022-11-10T21:19:36.640Z,17.00
2022-11-10T21:22:04.282Z,19.23
2022-11-10T21:24:31.861Z,17.63
2022-11-10T21:27:00.812Z,13.63
2022-11-10T21:29:28.328Z,13.30
2022-11-10T21:31:55.884Z,15.73
2022-11-10T21:34:23.419Z,15.77
2022-11-10T21:36:51.019Z,17.87
2022-11-10T21:39:18.614Z,21.33
2022-11-10T21:41:46.248Z,22.83
2022-11-10T21:44:15.163Z,19.03
2022-11-10T21:46:42.833Z,18.13
2022-11-10T21:49:10.401Z,17.60
2022-11-10T21:51:37.992Z,16.50
2022-11-10T21:54:05.738Z,13.80
2022-11-10T21:56:33.323Z,16.37
2022-11-10T21:59:00.997Z,17.87
2022-11-10T22:01:29.948Z,16.60
2022-11-10T22:03:57.519Z,17.40
2022-11-10T22:06:45.125Z,16.50
2022-11-10T22:09:12.691Z,17.03
2022-11-10T22:11:57.747Z,18.40
2022-11-10T22:14:43.140Z,17.30
2022-11-10T22:17:34.260Z,17.53
2022-11-10T22:20:01.904Z,14.67
2022-11-10T22:22:29.486Z,19.33
2022-11-10T22:24:57.327Z,17.73
2022-11-10T22:27:24.864Z,22.57
2022-11-10T22:29:52.407Z,27.53
2022-11-10T22:32:21.370Z,24.30
2022-11-10T22:34:48.975Z,23.00
2022-11-10T22:37:16.500Z,22.70
2022-11-10T22:40:01.835Z,23.03
2022-11-10T22:42:47.130Z,23.13
2022-11-10T22:45:14.734Z,22.30
2022-11-10T22:48:06.728Z,25.73
2022-11-10T22:50:34.276Z,28.37
2022-11-10T22:53:01.820Z,23.13
2022-11-10T22:55:29.391Z,18.43
2022-11-10T22:57:57.071Z,21.27
2022-11-10T23:00:24.639Z,23.77
2022-11-10T23:02:54.127Z,22.13
2022-11-10T23:05:21.873Z,20.10
2022-11-10T23:07:49.579Z,26.60
2022-11-10T23:10:17.472Z,24.97
2022-11-10T23:12:45.150Z,24.70
2022-11-10T23:15:12.740Z,27.47
2022-11-10T23:17:40.286Z,30.03
2022-11-10T23:20:10.993Z,26.90
2022-11-10T23:22:38.565Z,34.07
2022-11-10T23:25:07.328Z,30.67
2022-11-10T23:27:35.275Z,34.20
2022-11-10T23:30:02.983Z,152.87
2022-11-10T23:32:30.618Z,109.93
2022-11-10T23:34:58.175Z,181.60
2022-11-10T23:37:27.104Z,49.67
2022-11-10T23:39:54.642Z,35.03
2022-11-10T23:42:22.263Z,247.40
2022-11-10T23:44:49.817Z,245.40
2022-11-10T23:47:17.513Z,210.60
2022-11-10T23:49:45.100Z,90.40
2022-11-10T23:52:12.662Z,256.73
2022-11-10T23:54:41.584Z,194.77
2022-11-10T23:57:09.119Z,235.47
2022-11-10T23:59:36.839Z,89.10
